Time;durP1;ratioP1;P1;durP2;ratioP2;P2;SDS_P1;SDS_P2;PMS_P1;PMS_P2;Temp;Humidity;BMP_temperature;BMP_pressure;BME280_temperature;BME280_humidity;BME280_pressure;Samples;Min_cycle;Max_cycle;Signal;HPM_P1;HPM_P2
2024/04/19 00:04:07;;;;;;;5.82;2.85;;;;;;;6.61;74.05;100234.66;10402042;28;20031;-77
2024/04/19 00:09:09;;;;;;;2.78;1.77;;;;;;;6.33;74.82;100230.25;10401294;28;20008;-77
2024/04/19 00:14:11;;;;;;;6.55;2.88;;;;;;;6.21;74.54;100220.41;10400051;28;20089;-77
2024/04/19 00:19:13;;;;;;;8.57;2.83;;;;;;;6.51;74.15;100197.03;10374295;28;20025;-78
2024/04/19 00:24:15;;;;;;;11.50;2.85;;;;;;;6.57;72.41;100187.75;10401571;28;20446;-78
2024/04/19 00:29:16;;;;;;;3.95;0.98;;;;;;;5.94;73.42;100187.41;10391947;28;20007;-76
2024/04/19 00:34:18;;;;;;;5.17;2.70;;;;;;;6.21;73.10;100183.91;10407104;28;20084;-78
2024/04/19 00:39:20;;;;;;;7.25;2.97;;;;;;;6.39;71.05;100176.53;10418279;28;20011;-78
2024/04/19 00:44:23;;;;;;;8.77;2.75;;;;;;;6.63;70.31;100171.31;10409922;28;20016;-77
2024/04/19 00:49:25;;;;;;;6.60;2.67;;;;;;;6.37;71.96;100159.75;10407419;28;20056;-77
2024/04/19 00:54:27;;;;;;;2.92;1.85;;;;;;;5.90;74.30;100153.94;10412693;28;20008;-77
2024/04/19 00:59:30;;;;;;;8.93;2.40;;;;;;;6.05;73.52;100146.72;10417339;28;20088;-76
2024/04/19 01:04:32;;;;;;;4.72;2.30;;;;;;;6.20;73.79;100128.00;10412776;28;20049;-76
2024/04/19 01:09:34;;;;;;;2.33;1.52;;;;;;;5.99;74.91;100124.97;10410045;28;20045;-78
2024/04/19 01:14:36;;;;;;;7.97;2.80;;;;;;;5.22;82.61;100124.56;10402320;28;20047;-78
2024/04/19 01:19:38;;;;;;;7.30;3.15;;;;;;;4.79;87.88;100105.91;10414990;28;20000;-78
2024/04/19 01:24:46;;;;;;;4.53;2.65;;;;;;;4.43;91.73;100091.22;10444892;28;20008;-77
2024/04/19 01:29:48;;;;;;;8.60;2.90;;;;;;;4.10;95.99;100092.28;10419678;28;20021;-79
2024/04/19 01:34:50;;;;;;;8.70;4.07;;;;;;;4.22;96.35;100088.03;10393908;28;20343;-79
2024/04/19 01:39:52;;;;;;;4.97;3.05;;;;;;;4.18;99.63;100068.75;10406996;28;20008;-79
2024/04/19 01:44:53;;;;;;;4.13;3.38;;;;;;;4.50;98.18;100046.47;10404715;28;20012;-79
2024/04/19 01:49:55;;;;;;;8.65;4.88;;;;;;;4.20;100.00;100054.50;10412027;28;20026;-79
2024/04/19 01:54:57;;;;;;;9.80;5.65;;;;;;;4.08;100.00;100040.16;10411022;28;20016;-78
2024/04/19 01:59:59;;;;;;;12.30;7.47;;;;;;;4.49;100.00;100029.66;10426411;28;20025;-78
2024/04/19 02:05:01;;;;;;;10.25;6.07;;;;;;;3.67;100.00;100031.00;10444351;28;20019;-78
2024/04/19 02:10:04;;;;;;;11.77;7.03;;;;;;;3.53;100.00;100020.31;10441146;28;20456;-78
2024/04/19 02:15:06;;;;;;;12.48;7.53;;;;;;;3.84;100.00;100011.44;10412093;28;20020;-78
2024/04/19 02:20:08;;;;;;;;;;;;;;;3.23;100.00;100002.53;10419587;28;20004;-78
2024/04/19 02:25:09;;;;;;;14.43;7.72;;;;;;;3.53;100.00;99979.63;10406351;28;19938;-77
2024/04/19 02:35:32;;;;;;;18.77;11.57;;;;;;;3.48;100.00;99943.59;10434070;28;20088;-77
2024/04/19 02:40:33;;;;;;;20.15;11.30;;;;;;;3.63;100.00;99928.53;10423258;28;20027;-77
2024/04/19 02:45:40;;;;;;;21.52;14.48;;;;;;;3.60;100.00;99914.59;10416474;28;20099;-77
2024/04/19 02:50:53;;;;;;;27.88;15.52;;;;;;;3.86;100.00;99895.25;10416946;28;20787;-77
2024/04/19 02:55:56;;;;;;;20.70;11.93;;;;;;;3.60;100.00;99877.41;10425087;28;20356;-78
2024/04/19 03:00:58;;;;;;;31.60;19.10;;;;;;;3.70;100.00;99865.25;10406563;28;20353;-77
2024/04/19 03:06:00;;;;;;;22.05;15.52;;;;;;;3.31;100.00;99866.72;10404667;28;20442;-77
2024/04/19 03:11:06;;;;;;;26.52;18.58;;;;;;;3.68;100.00;99843.28;10389320;28;20027;-77
2024/04/19 03:16:09;;;;;;;15.65;10.38;;;;;;;3.36;100.00;99837.25;10397532;28;20023;-77
2024/04/19 03:21:14;;;;;;;16.67;11.70;;;;;;;3.27;100.00;99828.03;10412513;28;20135;-77
2024/04/19 03:26:16;;;;;;;20.05;13.13;;;;;;;3.56;100.00;99818.28;10402615;28;20093;-77
2024/04/19 03:31:18;;;;;;;13.63;8.20;;;;;;;3.12;100.00;99813.00;10407480;28;20380;-77
2024/04/19 03:36:19;;;;;;;13.70;9.07;;;;;;;3.22;100.00;99796.44;10404588;28;20023;-78
2024/04/19 03:41:21;;;;;;;13.60;9.23;;;;;;;3.01;100.00;99785.28;10435034;28;20168;-77
2024/04/19 03:46:23;;;;;;;11.27;7.82;;;;;;;3.39;100.00;99773.34;10418089;28;20004;-78
2024/04/19 03:51:25;;;;;;;7.43;6.68;;;;;;;3.10;100.00;99767.13;10400608;28;20482;-78
2024/04/19 03:56:27;;;;;;;9.95;8.30;;;;;;;3.23;100.00;99746.84;10421454;28;20065;-78
2024/04/19 04:01:29;;;;;;;13.55;10.55;;;;;;;2.96;100.00;99728.13;10411108;28;20012;-78
2024/04/19 04:06:31;;;;;;;10.75;9.23;;;;;;;3.15;100.00;99715.47;10420807;28;20011;-77
2024/04/19 04:11:33;;;;;;;10.02;7.75;;;;;;;2.97;100.00;99709.50;10392845;28;20019;-77
2024/04/19 04:16:35;;;;;;;10.02;7.72;;;;;;;3.10;100.00;99700.78;10413570;28;20008;-78
2024/04/19 04:21:37;;;;;;;12.02;8.88;;;;;;;3.24;100.00;99682.22;10409118;28;20438;-78
2024/04/19 04:26:38;;;;;;;13.73;9.82;;;;;;;3.40;100.00;99659.09;10415364;28;20016;-78
2024/04/19 04:31:40;;;;;;;10.85;8.27;;;;;;;3.31;100.00;99654.34;10404848;28;20023;-78
2024/04/19 04:36:42;;;;;;;10.38;9.20;;;;;;;3.52;100.00;99633.56;10414196;28;20006;-77
2024/04/19 04:41:44;;;;;;;11.25;7.53;;;;;;;3.52;100.00;99633.56;10391416;28;20469;-78
2024/04/19 04:46:46;;;;;;;18.60;12.13;;;;;;;3.61;100.00;99610.84;10411971;28;20018;-78
2024/04/19 04:51:48;;;;;;;14.18;11.52;;;;;;;3.63;100.00;99590.38;10417563;28;20011;-77
2024/04/19 04:56:50;;;;;;;11.55;8.48;;;;;;;3.44;100.00;99596.00;10394106;28;20451;-77
2024/04/19 05:01:51;;;;;;;10.07;7.35;;;;;;;3.68;100.00;99573.19;10404383;28;20026;-77
2024/04/19 05:06:53;;;;;;;16.67;11.40;;;;;;;3.72;100.00;99577.34;10358879;28;20019;-77
2024/04/19 05:11:55;;;;;;;14.35;10.07;;;;;;;3.66;100.00;99543.22;10385711;28;20011;-78
2024/04/19 05:16:57;;;;;;;11.95;7.63;;;;;;;3.86;100.00;99533.91;10393263;28;20007;-77
2024/04/19 05:21:59;;;;;;;14.73;8.77;;;;;;;3.84;100.00;99542.94;10405508;28;20016;-77
2024/04/19 05:27:01;;;;;;;14.75;10.45;;;;;;;3.86;100.00;99525.09;10412273;28;20008;-77
2024/04/19 05:32:03;;;;;;;20.27;12.60;;;;;;;4.07;100.00;99513.03;10425496;28;20114;-77
2024/04/19 05:37:05;;;;;;;15.00;10.93;;;;;;;3.99;100.00;99512.69;10397490;28;20022;-76
2024/04/19 05:42:07;;;;;;;15.13;10.55;;;;;;;3.93;100.00;99503.34;10406733;28;20023;-76
2024/04/19 05:47:09;;;;;;;18.00;10.50;;;;;;;3.89;100.00;99503.63;10390271;28;20008;-76
2024/04/19 05:52:11;;;;;;;12.77;8.65;;;;;;;3.94;100.00;99514.81;10404033;28;20030;-76
2024/04/19 05:57:15;;;;;;;19.42;11.10;;;;;;;3.71;100.00;99484.47;10402036;28;20007;-76
2024/04/19 06:02:16;;;;;;;13.60;10.23;;;;;;;3.94;100.00;99498.88;10396952;28;20012;-76
2024/04/19 06:07:21;;;;;;;9.60;6.75;;;;;;;4.08;100.00;99485.47;10442527;28;20080;-77
2024/04/19 06:12:23;;;;;;;15.10;11.38;;;;;;;4.03;100.00;99481.44;10389655;28;20012;-77
2024/04/19 06:17:25;;;;;;;17.35;13.73;;;;;;;4.26;100.00;99486.03;10423406;28;20012;-78
2024/04/19 06:22:26;;;;;;;12.10;9.40;;;;;;;4.12;100.00;99504.75;10413964;28;20012;-77
2024/04/19 06:27:28;;;;;;;18.40;12.27;;;;;;;4.64;100.00;99474.53;10413162;28;20012;-78
2024/04/19 06:32:30;;;;;;;20.60;11.13;;;;;;;4.49;100.00;99476.44;10421774;28;20012;-77
2024/04/19 06:37:32;;;;;;;20.90;9.88;;;;;;;4.49;100.00;99464.97;10409787;28;20354;-77
2024/04/19 06:42:34;;;;;;;13.20;9.60;;;;;;;4.32;100.00;99456.38;10432042;28;20025;-77
2024/04/19 06:47:37;;;;;;;14.52;7.85;;;;;;;4.21;100.00;99455.41;10373587;28;20012;-77
2024/04/19 06:52:39;;;;;;;;;;;;;;;4.50;100.00;99435.63;10389067;28;20457;-77
2024/04/19 06:57:41;;;;;;;9.27;7.53;;;;;;;4.74;100.00;99435.66;10422907;28;19937;-76
2024/04/19 07:02:47;;;;;;;12.68;9.45;;;;;;;4.68;100.00;99429.94;10417292;28;20027;-76
2024/04/19 07:07:49;;;;;;;9.43;7.22;;;;;;;4.60;100.00;99439.31;10392408;28;20027;-76
2024/04/19 07:12:51;;;;;;;14.55;9.02;;;;;;;4.64;100.00;99425.81;10383940;28;20022;-76
2024/04/19 07:24:29;;;;;;;19.35;16.30;;;;;;;5.25;100.00;99421.38;10234645;28;19929;-76
2024/04/19 07:29:31;;;;;;;23.60;17.35;;;;;;;5.32;100.00;99421.75;10257257;28;20032;-75
2024/04/19 07:34:33;;;;;;;16.45;12.30;;;;;;;5.11;100.00;99418.88;10267558;28;20086;-76
2024/04/19 07:39:35;;;;;;;16.98;12.15;;;;;;;5.26;100.00;99401.75;10272902;28;20171;-76
2024/04/19 07:44:36;;;;;;;18.65;13.60;;;;;;;5.45;100.00;99391.41;10295757;28;20016;-73
2024/04/19 07:49:38;;;;;;;10.27;7.68;;;;;;;5.15;100.00;99383.06;10276983;28;20457;-76
2024/04/19 07:54:42;;;;;;;12.10;9.45;;;;;;;5.31;100.00;99393.44;10304354;28;20005;-76
2024/04/19 07:59:43;;;;;;;7.60;5.85;;;;;;;5.27;100.00;99377.69;10313395;28;20023;-75
2024/04/19 08:04:45;;;;;;;9.15;5.75;;;;;;;5.45;100.00;99379.91;10293415;28;20352;-75
2024/04/19 08:09:50;;;;;;;12.30;8.85;;;;;;;5.39;100.00;99381.22;10309859;28;20096;-75
2024/04/19 08:14:53;;;;;;;13.65;10.25;;;;;;;5.54;100.00;99381.03;10276620;28;20026;-76
2024/04/19 08:19:54;;;;;;;16.58;13.00;;;;;;;5.82;100.00;99372.63;10297944;28;20009;-76
2024/04/19 08:24:56;;;;;;;19.77;13.88;;;;;;;5.84;100.00;99372.50;10311790;28;20003;-76
2024/04/19 08:29:58;;;;;;;19.88;15.13;;;;;;;5.66;100.00;99372.13;10358053;28;20056;-74
2024/04/19 08:35:00;;;;;;;16.75;12.02;;;;;;;6.04;100.00;99370.97;10274208;28;20023;-74
2024/04/19 08:40:02;;;;;;;17.17;11.70;;;;;;;6.26;100.00;99370.97;10362440;28;20023;-76
2024/04/19 08:45:06;;;;;;;14.95;12.82;;;;;;;6.49;100.00;99352.28;10358015;28;20016;-76
2024/04/19 08:50:09;;;;;;;13.07;10.32;;;;;;;6.92;100.00;99357.69;10345410;28;20019;-75
2024/04/19 08:55:14;;;;;;;5.80;4.65;;;;;;;6.89;100.00;99349.09;10323990;28;20019;-76
2024/04/19 09:00:16;;;;;;;7.05;6.18;;;;;;;7.15;100.00;99349.59;10317341;28;20009;-76
2024/04/19 09:05:23;;;;;;;11.82;9.32;;;;;;;8.03;100.00;99340.31;10317923;28;20031;-76
2024/04/19 09:10:25;;;;;;;6.63;6.03;;;;;;;7.50;100.00;99341.28;10304615;28;20008;-76
2024/04/19 09:15:27;;;;;;;9.48;6.50;;;;;;;8.67;100.00;99318.63;10312549;28;20039;-76
2024/04/19 09:20:29;;;;;;;;;;;;;;;8.33;100.00;99318.91;10312837;28;21065;-76
2024/04/19 09:25:31;;;;;;;4.13;3.58;;;;;;;8.49;100.00;99305.03;10318374;28;19939;-76
2024/04/19 09:30:33;;;;;;;5.73;2.67;;;;;;;7.86;100.00;99299.84;10314106;28;20009;-76
2024/04/19 09:35:35;;;;;;;4.22;3.30;;;;;;;7.89;100.00;99299.56;10302524;28;20016;-76
2024/04/19 09:40:38;;;;;;;;;;;;;;;8.08;100.00;99288.13;10311427;28;20009;-76
2024/04/19 09:45:43;;;;;;;7.20;3.70;;;;;;;8.42;100.00;99281.59;10363781;28;19931;-75
2024/04/19 09:50:46;;;;;;;4.85;3.47;;;;;;;9.46;100.00;99280.97;10301419;28;20013;-75
2024/04/19 09:56:09;;;;;;;6.25;2.55;;;;;;;8.44;100.00;99279.66;10302455;28;20492;-76
2024/04/19 10:01:11;;;;;;;;;;;;;;;8.22;100.00;99257.47;10319228;28;20024;-76
2024/04/19 10:06:13;;;;;;;9.23;3.77;;;;;;;8.76;100.00;99255.34;10294258;28;19932;-76
2024/04/19 10:11:16;;;;;;;4.97;2.25;;;;;;;8.30;100.00;99254.97;10340186;28;20016;-76
2024/04/19 10:16:18;;;;;;;3.40;2.00;;;;;;;9.05;100.00;99248.16;10336709;28;20024;-76
2024/04/19 10:21:24;;;;;;;2.35;1.75;;;;;;;10.50;94.97;99237.88;10357678;28;20089;-76
2024/04/19 10:26:27;;;;;;;4.53;1.70;;;;;;;10.51;89.37;99239.59;10326442;28;20027;-76
2024/04/19 10:31:29;;;;;;;5.50;1.83;;;;;;;8.94;87.57;99234.94;10312515;28;20474;-77
2024/04/19 10:36:31;;;;;;;3.50;1.65;;;;;;;9.65;91.49;99223.78;10319663;28;20023;-77
2024/04/19 10:41:33;;;;;;;8.30;1.55;;;;;;;10.52;81.61;99213.59;10306074;28;20020;-77
2024/04/19 10:46:35;;;;;;;3.78;0.77;;;;;;;9.97;75.28;99208.28;10312222;28;20067;-76
2024/04/19 10:51:39;;;;;;;3.50;1.00;;;;;;;9.68;78.62;99194.00;10315869;28;20699;-76
2024/04/19 10:56:41;;;;;;;5.00;1.10;;;;;;;9.14;82.14;99192.03;10321715;28;20048;-76
2024/04/19 11:01:44;;;;;;;5.43;0.93;;;;;;;8.66;86.08;99182.22;10312200;28;20013;-76
2024/04/19 11:06:46;;;;;;;4.28;1.42;;;;;;;10.21;78.45;99176.38;10297693;28;20298;-76
2024/04/19 11:11:48;;;;;;;2.72;0.70;;;;;;;12.67;64.96;99165.22;10267561;28;20040;-75
2024/04/19 11:16:51;;;;;;;4.35;1.00;;;;;;;11.65;66.69;99163.56;10275469;28;20045;-77
2024/04/19 11:21:53;;;;;;;4.78;1.20;;;;;;;10.34;72.74;99154.53;10300930;28;20013;-77
2024/04/19 11:26:55;;;;;;;2.90;1.48;;;;;;;8.42;87.88;99177.25;10321556;28;20044;-77
2024/04/19 11:32:02;;;;;;;7.47;2.00;;;;;;;7.81;100.00;99165.72;10264992;28;20107;-76
2024/04/19 11:37:04;;;;;;;10.13;1.75;;;;;;;8.30;100.00;99155.13;10299002;28;20012;-76
2024/04/19 11:42:06;;;;;;;8.25;1.98;;;;;;;9.47;95.62;99140.59;10301207;28;20407;-76
2024/04/19 11:47:08;;;;;;;3.33;1.15;;;;;;;11.03;94.20;99118.00;10285362;28;20013;-76
2024/04/19 11:52:09;;;;;;;5.80;1.55;;;;;;;10.20;85.46;99126.34;10299686;28;20094;-76
2024/04/19 11:57:11;;;;;;;3.10;0.97;;;;;;;7.92;100.00;99132.69;10301610;28;20023;-76
2024/04/19 12:02:13;;;;;;;7.45;1.60;;;;;;;8.14;100.00;99179.75;10308298;28;20256;-76
2024/04/19 12:07:15;;;;;;;7.15;2.05;;;;;;;7.13;100.00;99167.25;10303746;28;20579;-74
2024/04/19 12:12:19;;;;;;;4.65;1.88;;;;;;;7.91;100.00;99139.88;10287141;28;20014;-77
2024/04/19 12:17:41;;;;;;;4.88;0.90;;;;;;;7.35;100.00;99172.47;10295992;28;20009;-75
2024/04/19 12:22:43;;;;;;;2.58;1.10;;;;;;;6.00;100.00;99199.72;10301074;28;20068;-76
2024/04/19 12:27:57;;;;;;;2.10;0.80;;;;;;;6.24;100.00;99186.22;10293283;28;20016;-75
2024/04/19 12:32:59;;;;;;;3.38;1.08;;;;;;;6.76;100.00;99195.25;10309972;28;20008;-77
2024/04/19 12:38:01;;;;;;;13.38;1.38;;;;;;;7.74;100.00;99185.97;10291383;28;20040;-76
2024/04/19 12:43:04;;;;;;;3.25;0.85;;;;;;;6.98;100.00;99188.97;10301720;28;20008;-76
2024/04/19 12:48:07;;;;;;;2.42;0.80;;;;;;;6.88;100.00;99212.06;10273195;28;20056;-75
2024/04/19 12:53:10;;;;;;;1.85;0.90;;;;;;;6.23;100.00;99203.22;10280552;28;20111;-76
2024/04/19 12:58:12;;;;;;;2.83;1.20;;;;;;;6.93;100.00;99214.38;10298756;28;20009;-76
2024/04/19 13:03:14;;;;;;;5.28;1.65;;;;;;;7.24;100.00;99212.59;10308472;28;20028;-75
2024/04/19 13:08:16;;;;;;;5.00;0.77;;;;;;;7.53;100.00;99212.75;10314940;28;20020;-76
2024/04/19 13:13:18;;;;;;;1.58;0.90;;;;;;;7.78;100.00;99208.78;10310154;28;20013;-77
2024/04/19 13:18:20;;;;;;;1.35;0.98;;;;;;;7.63;100.00;99205.63;10272890;28;20028;-76
2024/04/19 13:23:22;;;;;;;1.95;0.73;;;;;;;7.47;100.00;99208.78;10286014;28;20017;-76
2024/04/19 13:28:24;;;;;;;1.73;1.00;;;;;;;7.43;100.00;99231.44;10290537;28;20478;-76
2024/04/19 13:33:26;;;;;;;2.28;0.93;;;;;;;6.94;100.00;99234.72;10319870;28;20385;-75
2024/04/19 13:38:28;;;;;;;2.75;1.10;;;;;;;6.53;100.00;99231.00;10299686;28;20012;-76
2024/04/19 13:43:30;;;;;;;5.88;1.25;;;;;;;6.04;100.00;99251.84;10297554;28;20009;-75
2024/04/19 13:48:38;;;;;;;2.08;0.50;;;;;;;6.01;100.00;99243.25;10286223;28;20010;-76
2024/04/19 13:53:40;;;;;;;2.70;0.50;;;;;;;6.00;100.00;99215.72;10282830;28;20016;-74
2024/04/19 13:58:44;;;;;;;0.77;0.30;;;;;;;5.91;100.00;99219.16;10287595;28;20028;-76
2024/04/19 14:03:45;;;;;;;0.40;0.38;;;;;;;6.76;100.00;99213.09;10311665;28;20358;-75
2024/04/19 14:08:52;;;;;;;1.75;0.20;;;;;;;7.90;100.00;99198.84;10302209;28;20094;-77
2024/04/19 14:13:54;;;;;;;1.52;0.22;;;;;;;7.98;100.00;99198.16;10288403;28;20005;-76
2024/04/19 14:18:56;;;;;;;2.65;0.47;;;;;;;9.36;100.00;99202.41;10272817;28;20013;-76
2024/04/19 14:23:58;;;;;;;0.50;0.35;;;;;;;9.98;100.00;99191.19;10247855;28;20021;-75
2024/04/19 14:29:00;;;;;;;3.58;1.10;;;;;;;8.37;100.00;99199.09;10226976;28;20025;-74
2024/04/19 14:34:02;;;;;;;3.45;1.55;;;;;;;7.56;100.00;99215.16;10232651;28;20534;-75
2024/04/19 14:39:04;;;;;;;5.05;1.10;;;;;;;6.20;100.00;99216.81;10235087;28;20013;-74
2024/04/19 14:44:06;;;;;;;3.45;1.10;;;;;;;6.44;100.00;99219.25;10219988;28;20120;-75
2024/04/19 14:49:08;;;;;;;4.90;1.27;;;;;;;6.66;100.00;99222.81;10224245;28;20366;-75
2024/04/19 14:54:10;;;;;;;5.25;1.67;;;;;;;6.86;100.00;99211.34;10215408;28;20013;-75
2024/04/19 14:59:12;;;;;;;6.43;1.83;;;;;;;6.58;100.00;99221.66;10227408;28;20533;-76
2024/04/19 15:04:15;;;;;;;8.10;2.10;;;;;;;8.53;100.00;99201.22;10239467;28;20017;-76
2024/04/19 15:09:17;;;;;;;7.00;1.80;;;;;;;8.95;100.00;99207.16;10242968;28;20046;-75
2024/04/19 15:14:18;;;;;;;5.25;1.77;;;;;;;9.01;96.16;99205.72;10244657;28;20008;-76
2024/04/19 15:19:20;;;;;;;9.50;2.83;;;;;;;7.83;94.69;99198.53;10219500;28;20027;-74
2024/04/19 15:24:22;;;;;;;10.45;2.05;;;;;;;8.14;100.00;99193.94;10280870;28;20057;-75
2024/04/19 15:29:24;;;;;;;9.23;2.67;;;;;;;8.56;93.07;99195.63;10283714;28;20110;-76
2024/04/19 15:34:26;;;;;;;14.13;2.70;;;;;;;7.25;100.00;99224.97;10318559;28;20009;-76
2024/04/19 15:39:48;;;;;;;7.73;2.60;;;;;;;8.84;100.00;99226.03;10294000;28;20016;-76
2024/04/19 15:44:50;;;;;;;5.82;2.03;;;;;;;8.52;100.00;99220.94;10287552;28;20052;-75
2024/04/19 15:49:52;;;;;;;11.05;1.83;;;;;;;8.24;98.21;99212.72;10313304;28;20021;-75
2024/04/19 15:54:54;;;;;;;8.38;2.35;;;;;;;6.77;86.52;99215.59;10316707;28;20019;-75
2024/04/19 15:59:56;;;;;;;8.73;2.08;;;;;;;8.35;90.59;99220.63;10294820;28;20087;-75
2024/04/19 16:04:58;;;;;;;8.52;2.67;;;;;;;9.16;84.43;99203.44;10291193;28;20051;-77
2024/04/19 16:10:00;;;;;;;11.30;2.25;;;;;;;8.72;77.46;99208.41;10299901;28;20618;-76
2024/04/19 16:15:02;;;;;;;10.63;2.08;;;;;;;9.59;78.33;99213.63;10314984;28;20024;-75
2024/04/19 16:20:04;;;;;;;16.30;2.22;;;;;;;10.01;74.23;99212.34;10285159;28;20053;-76
2024/04/19 16:25:10;;;;;;;14.45;2.40;;;;;;;9.50;68.46;99222.56;10216540;28;20020;-75
2024/04/19 16:30:12;;;;;;;7.65;1.90;;;;;;;7.99;75.69;99248.81;10218839;28;20017;-76
2024/04/19 16:35:14;;;;;;;9.68;2.40;;;;;;;6.59;86.99;99260.69;10253161;28;20009;-75
2024/04/19 16:40:17;;;;;;;9.13;2.05;;;;;;;6.43;93.52;99270.09;10257630;28;20012;-76
2024/04/19 16:45:19;;;;;;;8.18;1.65;;;;;;;7.36;91.39;99277.50;10254724;28;20024;-76
2024/04/19 16:50:20;;;;;;;6.80;1.25;;;;;;;6.85;92.30;99287.88;10245988;28;20351;-76
2024/04/19 16:55:23;;;;;;;8.10;1.80;;;;;;;6.63;92.97;99290.63;10249067;28;20009;-76
2024/04/19 17:00:25;;;;;;;7.32;2.20;;;;;;;6.92;93.27;99290.09;10263991;28;20029;-76
2024/04/19 17:05:27;;;;;;;4.88;1.13;;;;;;;6.78;92.21;99286.72;10262311;28;20016;-76
2024/04/19 17:10:32;;;;;;;6.80;1.33;;;;;;;6.98;92.09;99286.91;10259115;28;20100;-76
2024/04/19 17:15:34;;;;;;;8.05;1.70;;;;;;;7.05;94.35;99298.78;10248579;28;20010;-76
2024/04/19 17:20:40;;;;;;;8.68;1.50;;;;;;;6.38;99.91;99305.97;10239897;28;20121;-76
2024/04/19 17:25:43;;;;;;;8.13;1.60;;;;;;;5.94;100.00;99321.03;10280911;28;20040;-76
2024/04/19 17:30:45;;;;;;;4.53;1.27;;;;;;;6.16;100.00;99314.00;10262770;28;20020;-75
2024/04/19 17:35:46;;;;;;;4.88;1.02;;;;;;;6.04;100.00;99320.31;10299781;28;20404;-76
2024/04/19 17:40:48;;;;;;;7.03;1.10;;;;;;;5.99;100.00;99322.50;10290440;28;20006;-76
2024/04/19 17:45:50;;;;;;;5.32;1.00;;;;;;;6.09;99.70;99329.66;10302401;28;20377;-76
2024/04/19 17:50:53;;;;;;;1.52;0.80;;;;;;;6.29;97.10;99329.88;10273805;28;20469;-76
2024/04/19 17:55:55;;;;;;;1.25;0.90;;;;;;;6.35;96.86;99330.22;10305222;28;20013;-76
2024/04/19 18:00:57;;;;;;;7.20;1.27;;;;;;;6.21;96.41;99342.97;10310059;28;20019;-75
2024/04/19 18:06:00;;;;;;;5.68;1.30;;;;;;;6.09;96.45;99350.97;10291827;28;20022;-76
2024/04/19 18:11:03;;;;;;;3.65;0.80;;;;;;;6.09;97.78;99344.81;10301742;28;20024;-77
2024/04/19 18:16:07;;;;;;;3.63;1.02;;;;;;;5.98;100.00;99371.44;10289211;28;20013;-77
2024/04/19 18:21:09;;;;;;;3.70;1.58;;;;;;;6.34;99.39;99375.72;10289325;28;20023;-76
2024/04/19 18:26:10;;;;;;;3.43;1.83;;;;;;;6.17;99.05;99385.88;10287674;28;20060;-77
2024/04/19 18:31:12;;;;;;;2.22;0.82;;;;;;;6.15;98.60;99401.16;10291443;28;20373;-76
2024/04/19 18:36:17;;;;;;;7.45;2.40;;;;;;;6.08;100.00;99412.41;10303305;28;20028;-75
2024/04/19 18:41:23;;;;;;;1.98;0.82;;;;;;;6.15;100.00;99408.31;10312224;28;20009;-77
2024/04/19 18:46:25;;;;;;;3.17;1.33;;;;;;;5.57;100.00;99418.97;10314967;28;20017;-76
2024/04/19 18:51:26;;;;;;;5.95;1.40;;;;;;;5.84;100.00;99412.47;10306762;28;20008;-75
2024/04/19 18:56:28;;;;;;;2.58;1.40;;;;;;;6.17;100.00;99435.66;10312364;28;20024;-75
2024/04/19 19:01:30;;;;;;;5.70;1.85;;;;;;;5.26;100.00;99439.03;10314673;28;21046;-76
2024/04/19 19:06:33;;;;;;;3.65;1.58;;;;;;;5.63;100.00;99465.59;10325642;28;20031;-77
2024/04/19 19:11:35;;;;;;;4.00;1.65;;;;;;;5.54;100.00;99480.47;10321658;28;20020;-74
2024/04/19 19:16:37;;;;;;;3.72;2.45;;;;;;;5.53;100.00;99478.75;10313129;28;20009;-76
2024/04/19 19:21:39;;;;;;;3.83;2.95;;;;;;;5.75;100.00;99487.81;10305118;28;20365;-76
2024/04/19 19:26:41;;;;;;;4.22;1.88;;;;;;;5.97;100.00;99503.03;10310620;28;20101;-75
2024/04/19 19:31:44;;;;;;;4.53;2.10;;;;;;;5.76;100.00;99527.69;10309167;28;20685;-76
2024/04/19 19:36:48;;;;;;;3.25;1.95;;;;;;;5.71;100.00;99536.00;10319304;28;20013;-76
2024/04/19 19:41:50;;;;;;;2.42;2.00;;;;;;;5.42;100.00;99540.78;10318403;28;20391;-76
2024/04/19 19:46:52;;;;;;;3.22;2.03;;;;;;;5.80;100.00;99546.94;10310264;28;20012;-75
2024/04/19 19:51:54;;;;;;;4.70;2.60;;;;;;;5.57;100.00;99554.81;10268453;28;20009;-74
2024/04/19 19:56:56;;;;;;;2.58;2.38;;;;;;;5.62;100.00;99578.44;10300410;28;20028;-75
2024/04/19 20:07:19;;;;;;;6.78;2.30;;;;;;;5.73;100.00;99579.38;10292067;28;20106;-76
2024/04/19 20:12:20;;;;;;;4.28;2.60;;;;;;;5.81;100.00;99601.94;10322282;28;20023;-75
2024/04/19 20:17:22;;;;;;;5.20;2.65;;;;;;;5.79;100.00;99610.06;10300805;28;20470;-76
2024/04/19 20:22:24;;;;;;;5.50;3.13;;;;;;;5.57;100.00;99612.56;10309387;28;20020;-76
2024/04/19 20:27:26;;;;;;;6.43;4.32;;;;;;;5.63;100.00;99618.31;10298679;28;20023;-76
2024/04/19 20:32:28;;;;;;;4.43;3.50;;;;;;;5.69;100.00;99635.66;10288932;28;20404;-76
2024/04/19 20:37:30;;;;;;;6.15;3.45;;;;;;;5.56;100.00;99637.50;10308571;28;20019;-76
2024/04/19 20:42:31;;;;;;;6.22;3.20;;;;;;;5.81;99.12;99652.56;10302192;28;20805;-76
2024/04/19 20:47:38;;;;;;;3.13;2.83;;;;;;;5.45;99.42;99664.91;10279896;28;20500;-76
2024/04/19 20:52:40;;;;;;;3.10;2.53;;;;;;;5.72;96.91;99670.09;10285337;28;20015;-76
2024/04/19 20:57:42;;;;;;;4.03;2.85;;;;;;;5.47;96.92;99671.00;10297236;28;20027;-76
2024/04/19 21:02:44;;;;;;;4.93;2.78;;;;;;;5.67;96.65;99701.53;10312592;28;20016;-77
2024/04/19 21:07:46;;;;;;;4.25;2.90;;;;;;;5.77;96.54;99694.59;10305102;28;20796;-76
2024/04/19 21:12:49;;;;;;;5.05;3.25;;;;;;;5.70;96.61;99709.31;10315904;28;20022;-76
2024/04/19 21:17:51;;;;;;;5.75;2.85;;;;;;;5.30;96.98;99714.81;10302105;28;20016;-76
2024/04/19 21:22:52;;;;;;;8.02;1.90;;;;;;;5.47;97.41;99735.78;10308139;28;20012;-75
2024/04/19 21:27:54;;;;;;;6.22;2.70;;;;;;;5.68;95.56;99743.22;10314680;28;20004;-77
2024/04/19 21:32:56;;;;;;;8.02;2.63;;;;;;;5.26;95.75;99769.22;10295368;28;20032;-76
2024/04/19 21:37:58;;;;;;;4.63;2.90;;;;;;;5.25;96.48;99771.03;10297756;28;20853;-76
2024/04/19 21:43:00;;;;;;;5.67;3.60;;;;;;;5.38;93.84;99760.41;10301206;28;20023;-74
2024/04/19 21:48:03;;;;;;;5.45;2.88;;;;;;;5.12;93.96;99788.78;10301851;28;20294;-75
2024/04/19 21:53:05;;;;;;;5.93;3.60;;;;;;;5.73;94.77;99800.56;10305152;28;20027;-75
2024/04/19 21:58:07;;;;;;;7.10;3.72;;;;;;;5.78;94.38;99808.22;10286721;28;20017;-75
2024/04/19 22:03:12;;;;;;;4.45;3.63;;;;;;;5.52;93.65;99818.03;10284863;28;20028;-75
2024/04/19 22:08:14;;;;;;;8.82;3.65;;;;;;;5.74;93.90;99820.06;10300812;28;20151;-75
2024/04/19 22:13:18;;;;;;;7.13;3.78;;;;;;;5.52;93.98;99834.03;10305961;28;20025;-75
2024/04/19 22:18:20;;;;;;;8.32;3.95;;;;;;;5.77;92.72;99835.84;10297439;28;20012;-74
2024/04/19 22:23:21;;;;;;;8.85;3.70;;;;;;;5.44;94.08;99847.88;10293637;28;20013;-75
2024/04/19 22:28:23;;;;;;;5.68;3.85;;;;;;;5.56;93.61;99853.31;10282615;28;20067;-75
2024/04/19 22:33:26;;;;;;;11.18;4.38;;;;;;;5.31;93.22;99876.28;10301887;28;20580;-76
2024/04/19 22:38:28;;;;;;;8.10;3.30;;;;;;;5.78;91.68;99874.00;10299507;28;20473;-75
2024/04/19 22:43:29;;;;;;;10.13;3.35;;;;;;;5.49;90.11;99875.06;10300825;28;20024;-73
2024/04/19 22:48:36;;;;;;;7.88;3.20;;;;;;;5.50;88.71;99889.22;10292091;28;20769;-75
2024/04/19 22:53:38;;;;;;;10.25;3.30;;;;;;;5.30;89.13;99903.88;10310269;28;20016;-76
2024/04/19 22:58:39;;;;;;;7.55;2.92;;;;;;;5.50;87.59;99910.53;10291108;28;20693;-76
2024/04/19 23:03:41;;;;;;;5.95;2.40;;;;;;;5.47;86.50;99919.59;10298622;28;20009;-76
2024/04/19 23:08:43;;;;;;;7.43;2.38;;;;;;;5.51;85.33;99933.53;10282911;28;20024;-76
2024/04/19 23:13:45;;;;;;;8.38;3.45;;;;;;;5.37;85.48;99942.44;10299783;28;20058;-75
2024/04/19 23:18:47;;;;;;;9.63;2.85;;;;;;;5.31;85.22;99942.88;10309753;28;20023;-74
2024/04/19 23:23:48;;;;;;;7.95;2.92;;;;;;;5.54;86.39;99953.78;10292535;28;20464;-75
2024/04/19 23:28:50;;;;;;;4.32;2.63;;;;;;;5.42;84.96;99952.81;10294771;28;20516;-76
2024/04/19 23:33:52;;;;;;;4.97;2.38;;;;;;;5.66;84.75;99956.50;10308488;28;20088;-76
2024/04/19 23:38:54;;;;;;;7.82;2.33;;;;;;;5.78;86.10;99973.47;10300847;28;20494;-76
2024/04/19 23:43:56;;;;;;;10.07;2.58;;;;;;;5.84;88.60;99975.75;10310272;28;20024;-75